Time;durP1;ratioP1;P1;durP2;ratioP2;P2;SDS_P1;SDS_P2;PMS_P1;PMS_P2;Temp;Humidity;BMP_temperature;BMP_pressure;BME280_temperature;BME280_humidity;BME280_pressure;Samples;Min_cycle;Max_cycle;Signal;HPM_P1;HPM_P2
2024/01/13 00:02:15;;;;;;;15.27;9.70;;;;;;;2.39;47.37;100767.59;10329346;28;20771;-75
2024/01/13 00:07:17;;;;;;;12.23;8.97;;;;;;;2.44;46.68;100873.81;10341935;28;20233;-75
2024/01/13 00:12:18;;;;;;;14.00;10.63;;;;;;;1.53;47.32;101046.00;10329482;28;20234;-74
2024/01/13 00:17:20;;;;;;;16.87;11.80;;;;;;;2.69;46.95;100739.97;10333020;28;20348;-74
2024/01/13 00:22:22;;;;;;;12.00;9.70;;;;;;;1.84;48.77;100784.56;10328054;28;20236;-74
2024/01/13 00:27:24;;;;;;;14.40;9.20;;;;;;;2.63;46.33;100885.75;10340237;28;20241;-76
2024/01/13 00:32:25;;;;;;;12.73;9.60;;;;;;;1.43;48.57;100923.53;10338469;28;20318;-76
2024/01/13 00:37:27;;;;;;;15.47;10.17;;;;;;;2.88;45.66;100896.31;10332541;28;20301;-76
2024/01/13 00:42:29;;;;;;;13.33;9.77;;;;;;;3.09;45.03;100936.34;10348909;28;20308;-75
2024/01/13 00:47:30;;;;;;;14.23;9.43;;;;;;;2.79;46.26;100861.75;10343681;28;20242;-76
2024/01/13 00:52:32;;;;;;;16.07;10.97;;;;;;;1.11;48.05;101054.72;10337783;28;20246;-75
2024/01/13 00:57:34;;;;;;;17.53;11.93;;;;;;;0.42;49.90;100980.56;10343512;28;20237;-75
2024/01/13 01:02:35;;;;;;;24.83;13.63;;;;;;;1.32;48.90;100800.28;10341359;28;20262;-76
2024/01/13 01:07:37;;;;;;;21.90;12.77;;;;;;;1.65;48.04;100883.44;10346064;28;20229;-75
2024/01/13 01:12:39;;;;;;;16.13;11.77;;;;;;;-0.93;51.98;101117.56;10334340;28;20555;-76
2024/01/13 01:17:40;;;;;;;19.93;12.93;;;;;;;1.45;48.89;100736.16;10346688;28;20229;-75
2024/01/13 01:22:42;;;;;;;16.60;11.70;;;;;;;1.58;47.89;100814.38;10364287;28;20238;-76
2024/01/13 01:27:44;;;;;;;17.40;11.53;;;;;;;0.96;49.17;100872.78;10343554;28;20251;-76
2024/01/13 01:32:45;;;;;;;20.23;13.03;;;;;;;1.54;48.31;100717.06;10330875;28;20238;-78
2024/01/13 01:37:47;;;;;;;17.70;12.73;;;;;;;1.90;47.21;100786.81;10341139;28;20230;-75
2024/01/13 01:42:49;;;;;;;17.43;12.53;;;;;;;1.53;47.23;100836.75;10338371;28;20315;-76
2024/01/13 01:47:52;;;;;;;21.87;14.67;;;;;;;1.33;47.89;100835.38;10331528;28;20230;-75
2024/01/13 01:52:54;;;;;;;20.70;13.37;;;;;;;-0.47;51.02;100992.50;10328861;28;20237;-74
2024/01/13 01:58:00;;;;;;;21.37;13.50;;;;;;;0.24;48.89;100985.94;10346196;28;20590;-74
2024/01/13 02:03:01;;;;;;;22.10;14.43;;;;;;;-1.17;52.95;100966.34;10329493;28;20213;-75
2024/01/13 02:08:04;;;;;;;23.47;14.20;;;;;;;1.86;48.75;100596.13;10332746;28;20705;-76
2024/01/13 02:13:05;;;;;;;23.77;15.13;;;;;;;0.22;50.81;100737.69;10320937;28;20250;-75
2024/01/13 02:18:07;;;;;;;23.17;14.40;;;;;;;-0.07;50.43;100942.91;10329194;28;20265;-75
2024/01/13 02:23:13;;;;;;;22.93;14.00;;;;;;;0.96;48.87;100806.06;10324281;28;20252;-75
2024/01/13 02:28:18;;;;;;;16.37;11.83;;;;;;;-0.91;52.14;100943.09;10340266;28;20717;-75
2024/01/13 02:33:40;;;;;;;18.17;12.07;;;;;;;1.20;48.49;100754.41;10325285;28;20241;-75
2024/01/13 02:38:42;;;;;;;19.03;12.40;;;;;;;1.65;46.93;100857.03;10339317;28;20241;-75
2024/01/13 02:43:44;;;;;;;18.53;11.93;;;;;;;1.26;47.46;100929.00;10318142;28;20338;-75
2024/01/13 02:48:50;;;;;;;20.60;12.60;;;;;;;2.54;46.72;100628.28;10334197;28;20243;-75
2024/01/13 02:53:52;;;;;;;17.33;12.20;;;;;;;2.61;46.61;100663.03;10332294;28;20835;-76
2024/01/13 02:58:54;;;;;;;14.90;10.40;;;;;;;0.76;47.86;100968.03;10325937;28;20664;-77
2024/01/13 03:03:56;;;;;;;19.90;11.73;;;;;;;-0.03;50.41;100862.00;10324649;28;20240;-76
2024/01/13 03:08:58;;;;;;;16.87;10.70;;;;;;;1.32;48.63;100725.56;10324601;28;20241;-76
2024/01/13 03:13:59;;;;;;;18.67;11.23;;;;;;;2.15;46.97;100652.16;10318468;28;20244;-75
2024/01/13 03:19:01;;;;;;;20.90;12.03;;;;;;;1.70;47.51;100749.41;10324727;28;20332;-75
2024/01/13 03:24:03;;;;;;;18.73;11.97;;;;;;;1.82;47.23;100728.41;10323613;28;20234;-75
2024/01/13 03:29:05;;;;;;;13.97;10.03;;;;;;;1.65;46.13;100925.66;10317020;28;20249;-76
2024/01/13 03:34:06;;;;;;;13.53;10.37;;;;;;;0.98;48.75;100828.75;10325426;28;20244;-76
2024/01/13 03:39:09;;;;;;;18.83;12.67;;;;;;;1.54;47.95;100674.84;10320450;28;20657;-74
2024/01/13 03:44:11;;;;;;;15.97;10.63;;;;;;;0.88;47.47;100956.75;10320278;28;20242;-74
2024/01/13 03:49:12;;;;;;;17.40;10.80;;;;;;;1.98;47.47;100637.50;10334835;28;20716;-74
2024/01/13 03:54:14;;;;;;;15.43;10.33;;;;;;;3.06;45.03;100653.56;10338912;28;20244;-74
2024/01/13 03:59:16;;;;;;;17.13;10.73;;;;;;;0.34;48.53;100895.88;10328014;28;20245;-74
2024/01/13 04:04:18;;;;;;;16.37;11.67;;;;;;;0.75;50.57;100606.22;10324996;28;20245;-75
2024/01/13 04:09:20;;;;;;;17.60;12.37;;;;;;;2.68;45.12;100807.84;10353237;28;20332;-75
2024/01/13 04:14:21;;;;;;;24.17;13.33;;;;;;;1.63;45.84;100961.84;10333883;28;20229;-75
2024/01/13 04:19:23;;;;;;;15.73;11.87;;;;;;;1.85;48.62;100588.31;10335402;28;20245;-73
2024/01/13 04:24:25;;;;;;;18.20;11.70;;;;;;;2.72;45.62;100716.81;10338447;28;20338;-74
2024/01/13 04:29:27;;;;;;;16.33;10.50;;;;;;;1.42;46.99;100859.38;10335327;28;20233;-74
2024/01/13 04:34:28;;;;;;;18.33;11.30;;;;;;;1.22;47.86;100849.25;10333561;28;20232;-74
2024/01/13 04:39:30;;;;;;;16.70;11.57;;;;;;;1.73;47.43;100690.31;10342800;28;20246;-73
2024/01/13 04:44:32;;;;;;;26.37;14.30;;;;;;;2.52;45.83;100681.25;10350332;28;20314;-72
2024/01/13 04:49:34;;;;;;;20.87;12.80;;;;;;;2.32;45.37;100845.59;10340985;28;20249;-73
2024/01/13 04:54:35;;;;;;;24.13;14.27;;;;;;;-0.02;50.60;100718.13;10338908;28;20316;-74
2024/01/13 04:59:37;;;;;;;20.50;13.90;;;;;;;1.65;47.76;100664.41;10338100;28;20294;-71
2024/01/13 05:04:39;;;;;;;21.67;13.10;;;;;;;3.31;44.61;100666.75;10340333;28;20666;-70
2024/01/13 05:09:41;;;;;;;22.97;14.03;;;;;;;2.22;45.95;100766.13;10330105;28;20277;-72
2024/01/13 05:14:44;;;;;;;18.80;12.80;;;;;;;3.61;43.78;100639.75;10338816;28;20226;-70
2024/01/13 05:19:45;;;;;;;22.13;13.07;;;;;;;2.55;45.11;100788.50;10331966;28;20255;-70
2024/01/13 05:24:47;;;;;;;21.53;12.83;;;;;;;1.42;46.98;100853.25;10333828;28;20814;-72
2024/01/13 05:29:49;;;;;;;20.00;13.07;;;;;;;0.28;49.05;100882.13;10335515;28;20338;-72
2024/01/13 05:34:53;;;;;;;17.00;11.87;;;;;;;1.48;46.36;100852.88;10330623;28;20272;-70
2024/01/13 05:39:55;;;;;;;21.93;13.63;;;;;;;2.36;45.92;100680.63;10325278;28;20242;-71
2024/01/13 05:44:58;;;;;;;22.97;13.70;;;;;;;2.40;44.64;100811.56;10338575;28;20230;-71
2024/01/13 05:50:01;;;;;;;16.20;11.60;;;;;;;1.46;46.31;100846.84;10335023;28;20242;-71
2024/01/13 05:55:03;;;;;;;18.20;11.33;;;;;;;-0.30;48.67;100978.44;10337298;28;20238;-70
2024/01/13 06:00:06;;;;;;;18.47;11.30;;;;;;;1.57;47.31;100643.00;10337841;28;20234;-72
2024/01/13 06:05:08;;;;;;;17.07;10.83;;;;;;;1.25;46.76;100843.75;10327020;28;20284;-72
2024/01/13 06:10:11;;;;;;;18.60;12.00;;;;;;;1.75;46.93;100649.66;10328851;28;20244;-72
2024/01/13 06:15:12;;;;;;;17.90;12.90;;;;;;;-0.15;48.71;100989.88;10335132;28;20322;-70
2024/01/13 06:20:14;;;;;;;22.77;15.00;;;;;;;0.05;48.85;100945.81;10330704;28;20292;-72
2024/01/13 06:25:17;;;;;;;22.53;14.70;;;;;;;3.00;44.54;100650.53;10333071;28;20771;-72
2024/01/13 06:30:18;;;;;;;23.93;16.27;;;;;;;1.43;47.17;100741.53;10329962;28;20267;-72
2024/01/13 06:35:20;;;;;;;27.83;18.70;;;;;;;2.75;45.84;100540.44;10333082;28;20256;-71
2024/01/13 06:40:22;;;;;;;22.40;16.03;;;;;;;2.57;44.98;100725.84;10326595;28;20245;-73
2024/01/13 06:45:24;;;;;;;25.37;17.27;;;;;;;2.43;46.51;100578.84;10327833;28;20229;-70
2024/01/13 06:50:25;;;;;;;30.87;16.03;;;;;;;1.55;48.45;100615.88;10330571;28;20586;-71
2024/01/13 06:55:35;;;;;;;24.27;16.33;;;;;;;1.31;48.17;100624.47;10332430;28;20240;-72
2024/01/13 07:00:39;;;;;;;27.60;18.27;;;;;;;3.26;44.49;100583.31;10327593;28;20316;-72
2024/01/13 07:05:40;;;;;;;27.67;17.27;;;;;;;2.74;44.87;100706.13;10326251;28;20247;-71
2024/01/13 07:10:42;;;;;;;26.07;16.60;;;;;;;4.03;42.63;100672.66;10329091;28;20254;-72
2024/01/13 07:15:45;;;;;;;26.23;17.63;;;;;;;4.36;42.58;100614.53;10328331;28;20236;-72
2024/01/13 07:20:46;;;;;;;27.80;18.77;;;;;;;2.34;44.11;101023.31;10329180;28;20917;-72
2024/01/13 07:25:48;;;;;;;23.67;15.37;;;;;;;-0.50;50.83;100881.34;10336554;28;20249;-71
2024/01/13 07:30:49;;;;;;;25.30;16.70;;;;;;;3.15;45.67;100562.09;10334056;28;20237;-72
2024/01/13 07:35:51;;;;;;;29.53;18.60;;;;;;;2.95;45.06;100694.97;10337426;28;20780;-72
2024/01/13 07:40:53;;;;;;;23.50;16.87;;;;;;;0.83;48.84;100755.91;10335312;28;20279;-72
2024/01/13 07:45:55;;;;;;;29.47;17.57;;;;;;;2.26;45.51;100787.88;10338131;28;20693;-71
2024/01/13 07:50:56;;;;;;;31.90;18.83;;;;;;;3.49;44.53;100601.03;10336882;28;20526;-72
2024/01/13 07:55:59;;;;;;;27.37;18.33;;;;;;;1.24;47.89;100720.78;10337017;28;20303;-72
2024/01/13 08:01:02;;;;;;;30.33;18.00;;;;;;;2.30;47.23;100556.94;10341141;28;20748;-72
2024/01/13 08:06:04;;;;;;;28.30;17.17;;;;;;;-0.51;50.81;100877.88;10341608;28;20742;-72
2024/01/13 08:11:06;;;;;;;32.00;18.37;;;;;;;1.91;46.95;100659.13;10340981;28;20317;-72
2024/01/13 08:16:09;;;;;;;29.30;17.47;;;;;;;-0.40;49.85;100947.44;10359734;28;20261;-72
2024/01/13 08:21:11;;;;;;;29.53;18.50;;;;;;;1.19;48.79;100606.84;10331362;28;20236;-72
2024/01/13 08:26:18;;;;;;;27.77;18.23;;;;;;;2.29;45.41;100770.03;10333513;28;20252;-72
2024/01/13 08:31:20;;;;;;;25.30;17.63;;;;;;;3.03;45.42;100589.50;10328217;28;20270;-72
2024/01/13 08:36:38;;;;;;;32.10;20.17;;;;;;;1.73;46.98;100765.03;10333594;28;20324;-71
2024/01/13 08:41:40;;;;;;;29.67;18.33;;;;;;;2.07;46.38;100773.31;10346080;28;20272;-72
2024/01/13 08:46:42;;;;;;;23.10;17.37;;;;;;;3.64;44.52;100600.66;10330448;28;20234;-71
2024/01/13 08:51:43;;;;;;;26.70;17.73;;;;;;;3.50;43.78;100704.13;10337338;28;20618;-71
2024/01/13 08:56:45;;;;;;;25.93;17.83;;;;;;;4.48;42.81;100565.81;10334812;28;20308;-72
2024/01/13 09:01:47;;;;;;;23.40;16.37;;;;;;;2.09;47.31;100643.81;10334393;28;20236;-71
2024/01/13 09:06:49;;;;;;;24.57;15.33;;;;;;;1.42;46.54;100911.28;10329810;28;20230;-71
2024/01/13 09:11:50;;;;;;;31.93;19.97;;;;;;;3.43;44.75;100647.31;10328464;28;20624;-72
2024/01/13 09:16:52;;;;;;;24.87;16.07;;;;;;;2.82;46.03;100603.31;10328784;28;20237;-72
2024/01/13 09:21:54;;;;;;;29.17;17.27;;;;;;;3.14;44.91;100658.28;10331008;28;20230;-71
2024/01/13 09:26:56;;;;;;;23.13;14.83;;;;;;;0.81;48.50;100777.06;10333358;28;20231;-72
2024/01/13 09:31:59;;;;;;;22.77;14.53;;;;;;;2.16;46.80;100616.03;10324913;28;20632;-70
2024/01/13 09:37:00;;;;;;;18.53;12.70;;;;;;;1.87;45.66;100832.72;10331042;28;20280;-71
2024/01/13 09:42:02;;;;;;;18.80;13.27;;;;;;;1.46;46.87;100823.09;10332604;28;20242;-71
2024/01/13 09:47:04;;;;;;;20.23;13.77;;;;;;;2.55;45.31;100677.53;10331589;28;20652;-72
2024/01/13 09:52:06;;;;;;;20.53;13.10;;;;;;;3.40;44.29;100624.56;10327542;28;20245;-71
2024/01/13 09:57:08;;;;;;;19.63;12.20;;;;;;;2.11;45.27;100755.44;10324668;28;20229;-69
2024/01/13 10:02:13;;;;;;;14.80;10.60;;;;;;;1.45;46.49;100665.78;10327564;28;20230;-71
2024/01/13 10:07:15;;;;;;;17.80;11.93;;;;;;;2.04;45.41;100699.59;10322709;28;20238;-72
2024/01/13 10:12:29;;;;;;;16.77;11.53;;;;;;;2.44;44.79;100637.84;10323195;28;20276;-72
2024/01/13 10:17:31;;;;;;;17.97;10.87;;;;;;;1.15;46.70;100776.72;10333348;28;20239;-71
2024/01/13 10:22:37;;;;;;;15.83;10.53;;;;;;;2.12;45.48;100617.19;10321640;28;20234;-72
2024/01/13 10:27:38;;;;;;;15.03;10.80;;;;;;;2.70;43.52;100724.00;10315882;28;20273;-71
2024/01/13 10:32:42;;;;;;;14.50;10.37;;;;;;;1.39;45.11;100891.22;10322667;28;20304;-71
2024/01/13 10:37:44;;;;;;;14.47;9.30;;;;;;;2.83;44.33;100570.63;10325204;28;21279;-73
2024/01/13 10:42:52;;;;;;;14.87;10.00;;;;;;;2.66;44.24;100630.03;10330957;28;20264;-73
2024/01/13 10:48:02;;;;;;;16.43;9.40;;;;;;;0.47;46.43;100950.38;10322838;28;20317;-71
2024/01/13 10:53:23;;;;;;;15.67;10.80;;;;;;;0.39;47.55;100838.53;10329961;28;20308;-73
2024/01/13 10:58:25;;;;;;;16.33;10.30;;;;;;;1.57;45.25;100767.84;10333559;28;20244;-74
2024/01/13 11:06:17;;;;;;;16.67;11.83;;;;;;;-0.24;49.38;100629.97;10518711;27;20339;-73
2024/01/13 11:11:26;;;;;;;19.50;11.73;;;;;;;-0.46;49.47;100585.72;10433488;28;20620;-71
2024/01/13 11:16:44;;;;;;;18.27;9.50;;;;;;;-0.62;50.12;100586.63;10443991;28;20323;-71
2024/01/13 11:21:48;;;;;;;15.17;10.10;;;;;;;-0.16;50.94;100354.13;10428321;28;20235;-73
2024/01/13 11:26:53;;;;;;;18.03;11.77;;;;;;;-0.28;49.98;100552.19;10431951;28;20239;-73
2024/01/13 11:31:57;;;;;;;15.77;11.00;;;;;;;-0.23;49.92;100494.88;10431437;28;20224;-73
2024/01/13 11:36:59;;;;;;;15.93;9.57;;;;;;;-1.21;50.81;100694.25;10433832;28;20232;-73
2024/01/13 11:42:03;;;;;;;28.83;15.50;;;;;;;0.49;47.97;100463.03;10428872;28;20239;-71
2024/01/13 11:47:05;;;;;;;15.13;10.27;;;;;;;-0.78;49.76;100651.53;10430153;28;20768;-73
2024/01/13 11:52:12;;;;;;;14.00;10.20;;;;;;;-0.16;49.31;100438.31;10431342;28;20718;-72
2024/01/13 11:57:17;;;;;;;13.80;9.73;;;;;;;-0.55;49.35;100546.81;10428088;28;20323;-72
2024/01/13 12:02:21;;;;;;;18.73;11.13;;;;;;;-0.01;49.50;100375.94;10432535;28;20618;-70
2024/01/13 12:07:24;;;;;;;15.67;10.30;;;;;;;1.19;47.02;100366.94;10430231;28;20354;-72
2024/01/13 12:12:26;;;;;;;17.10;10.73;;;;;;;0.66;48.33;100317.88;10435588;28;20612;-73
2024/01/13 12:17:27;;;;;;;19.23;10.97;;;;;;;1.24;46.45;100422.81;10400571;28;20768;-72
2024/01/13 12:22:29;;;;;;;20.00;11.23;;;;;;;1.57;46.63;100290.34;10403258;28;20711;-72
2024/01/13 12:27:31;;;;;;;21.03;11.00;;;;;;;-0.36;49.70;100394.84;10403379;28;20247;-72
2024/01/13 12:32:37;;;;;;;17.77;10.13;;;;;;;-0.83;49.33;100580.84;10402470;28;20236;-72
2024/01/13 12:37:39;;;;;;;20.33;11.77;;;;;;;0.57;47.90;100418.59;10402291;28;20254;-72
2024/01/13 12:42:41;;;;;;;20.17;11.93;;;;;;;-0.15;49.36;100347.91;10402675;28;20232;-70
2024/01/13 12:47:44;;;;;;;17.77;11.40;;;;;;;0.04;49.01;100254.56;10395038;28;20330;-72
2024/01/13 12:52:46;;;;;;;18.93;10.73;;;;;;;-0.33;48.94;100384.16;10388628;28;20474;-70
2024/01/13 12:57:48;;;;;;;19.50;10.87;;;;;;;-0.37;48.67;100452.81;10394047;28;20733;-71
2024/01/13 13:02:51;;;;;;;16.93;10.23;;;;;;;-0.34;48.80;100369.31;10401005;28;20334;-72
2024/01/13 13:07:54;;;;;;;22.23;12.37;;;;;;;0.69;48.33;100130.59;10400126;28;20275;-72
2024/01/13 13:12:59;;;;;;;11.87;8.63;;;;;;;-1.03;48.85;100584.63;10403956;28;20745;-71
2024/01/13 13:18:01;;;;;;;15.87;10.37;;;;;;;0.48;46.27;100490.34;10398319;28;20334;-70
2024/01/13 13:23:04;;;;;;;14.73;9.73;;;;;;;0.90;47.09;100226.66;10402483;28;20708;-71
2024/01/13 13:28:05;;;;;;;20.00;11.27;;;;;;;0.43;47.50;100322.09;10400919;28;20234;-72
2024/01/13 13:33:07;;;;;;;25.63;10.97;;;;;;;1.56;46.00;100191.03;10440316;28;20291;-71
2024/01/13 13:38:09;;;;;;;19.87;11.03;;;;;;;0.58;47.40;100328.09;10400296;28;20237;-71
2024/01/13 13:43:11;;;;;;;17.87;12.07;;;;;;;0.31;47.81;100392.22;10451658;28;20230;-72
2024/01/13 13:48:13;;;;;;;15.83;10.40;;;;;;;0.24;48.01;100324.28;10458723;28;20231;-72
2024/01/13 13:53:15;;;;;;;19.13;11.47;;;;;;;0.43;47.11;100393.19;10440231;28;20330;-71
2024/01/13 13:58:16;;;;;;;19.67;11.37;;;;;;;0.20;47.64;100407.06;10443951;28;20260;-72
2024/01/13 14:03:18;;;;;;;18.27;11.03;;;;;;;1.53;46.43;100170.16;10403455;28;20703;-72
2024/01/13 14:08:20;;;;;;;19.73;11.57;;;;;;;0.02;47.89;100361.72;10412284;28;20475;-71
2024/01/13 14:13:24;;;;;;;23.60;12.23;;;;;;;0.82;46.76;100361.59;10440245;28;20230;-72
2024/01/13 14:18:32;;;;;;;21.97;11.50;;;;;;;0.78;46.98;100265.25;10431106;28;20251;-72
2024/01/13 14:23:34;;;;;;;20.30;12.73;;;;;;;0.53;47.19;100297.75;10433615;28;20681;-72
2024/01/13 14:28:36;;;;;;;20.77;13.43;;;;;;;2.36;44.81;100173.47;10430838;28;20236;-72
2024/01/13 14:33:38;;;;;;;24.03;13.20;;;;;;;1.77;45.05;100330.22;10397406;28;20236;-72
2024/01/13 14:38:40;;;;;;;28.03;16.80;;;;;;;-0.04;47.45;100627.94;10391028;28;20244;-71
2024/01/13 14:43:42;;;;;;;35.00;19.50;;;;;;;0.52;48.38;100378.56;10398539;28;20240;-70
2024/01/13 14:48:43;;;;;;;43.70;17.93;;;;;;;-1.96;51.31;100678.16;10434110;28;20637;-71
2024/01/13 14:53:48;;;;;;;30.60;17.87;;;;;;;0.61;48.21;100409.56;10415152;28;20247;-71
2024/01/13 14:58:51;;;;;;;36.13;18.37;;;;;;;0.16;50.27;100181.81;10415419;28;20243;-71
2024/01/13 15:03:52;;;;;;;36.23;20.33;;;;;;;0.44;48.89;100272.91;10438105;28;20239;-71
2024/01/13 15:08:55;;;;;;;36.20;19.37;;;;;;;0.19;48.65;100376.41;10395612;28;20714;-72
2024/01/13 15:13:57;;;;;;;40.90;20.73;;;;;;;1.35;47.27;100226.94;10410463;28;20440;-71
2024/01/13 15:18:59;;;;;;;39.37;21.90;;;;;;;0.34;48.12;100396.44;10446227;28;20237;-71
2024/01/13 15:24:04;;;;;;;38.33;18.17;;;;;;;-0.30;49.98;100312.94;10457621;28;20273;-71
2024/01/13 15:29:06;;;;;;;42.13;20.33;;;;;;;0.02;50.02;100191.56;10441070;28;20632;-70
2024/01/13 15:34:07;;;;;;;33.83;18.03;;;;;;;-0.26;49.62;100329.38;10409767;28;20698;-71
2024/01/13 15:39:12;;;;;;;33.77;16.30;;;;;;;-1.79;50.16;100686.94;10458090;28;20242;-70
2024/01/13 15:44:14;;;;;;;41.60;19.90;;;;;;;-0.01;48.86;100352.28;10456151;28;20522;-71
2024/01/13 15:49:16;;;;;;;31.27;17.63;;;;;;;-1.56;50.55;100593.81;10452537;28;20991;-71
2024/01/13 15:54:17;;;;;;;34.17;18.37;;;;;;;-0.73;49.56;100486.53;10465780;28;20286;-71
2024/01/13 15:59:19;;;;;;;31.10;17.73;;;;;;;0.97;48.34;100140.94;10466332;28;20595;-71
2024/01/13 16:04:21;;;;;;;37.33;20.27;;;;;;;1.12;47.85;100158.25;10461503;28;20383;-71
2024/01/13 16:09:23;;;;;;;37.43;20.33;;;;;;;-1.05;50.53;100491.09;10462192;28;20343;-71
2024/01/13 16:14:25;;;;;;;32.93;17.43;;;;;;;-1.58;50.94;100607.03;10467786;28;20889;-70
2024/01/13 16:19:26;;;;;;;35.30;18.87;;;;;;;0.20;48.30;100376.31;10455187;22;20249;-35
2024/01/13 16:24:28;;;;;;;43.40;20.50;;;;;;;1.16;47.87;100150.97;10384315;28;20240;-35
2024/01/13 16:29:31;;;;;;;39.27;18.03;;;;;;;-1.80;49.94;100683.47;10353898;28;20301;-35
2024/01/13 16:34:33;;;;;;;37.80;19.90;;;;;;;1.15;46.65;100326.75;10363339;28;20240;-39
2024/01/13 16:39:35;;;;;;;77.03;21.40;;;;;;;1.65;45.35;100316.13;10349182;28;20216;-41
2024/01/13 16:44:36;;;;;;;28.00;16.30;;;;;;;0.75;46.60;100449.91;10346411;28;20248;-40
2024/01/13 16:49:38;;;;;;;30.83;17.20;;;;;;;0.20;48.24;100325.44;10356617;28;20305;-38
2024/01/13 16:54:42;;;;;;;30.87;16.10;;;;;;;0.04;48.40;100341.41;10375406;28;20706;-41
2024/01/13 16:59:44;;;;;;;29.30;16.90;;;;;;;1.42;46.83;100136.69;10403283;28;20324;-39
2024/01/13 17:04:46;;;;;;;30.17;16.90;;;;;;;0.76;47.20;100240.81;10415498;28;20248;-42
2024/01/13 17:09:48;;;;;;;26.37;14.57;;;;;;;0.58;46.94;100359.72;10411467;28;20236;-42
2024/01/13 17:14:50;;;;;;;18.87;11.83;;;;;;;0.63;46.20;100362.00;10409734;28;20719;-41
2024/01/13 17:19:51;;;;;;;17.80;10.90;;;;;;;0.39;47.37;100267.94;10410503;28;20754;-40
2024/01/13 17:24:54;;;;;;;17.00;11.70;;;;;;;0.70;45.90;100331.69;10414205;28;20235;-42
2024/01/13 17:29:56;;;;;;;20.30;12.07;;;;;;;0.67;45.91;100293.22;10408704;28;20236;-39
2024/01/13 17:34:57;;;;;;;18.77;11.73;;;;;;;-0.66;47.41;100416.03;10418086;28;20248;-43
2024/01/13 17:40:00;;;;;;;17.37;10.30;;;;;;;-0.13;46.74;100367.06;10412176;28;20270;-38
2024/01/13 17:45:05;;;;;;;14.73;9.00;;;;;;;-0.13;46.77;100351.28;10413866;28;20274;-38
2024/01/13 17:50:07;;;;;;;23.77;12.77;;;;;;;1.03;46.08;100151.03;10407320;28;20208;-40
2024/01/13 17:55:16;;;;;;;19.13;12.70;;;;;;;0.95;45.06;100293.03;10400579;28;20250;-40
2024/01/13 18:00:19;;;;;;;24.57;13.63;;;;;;;1.34;44.84;100220.00;10413371;28;20220;-41
2024/01/13 18:05:22;;;;;;;26.30;14.67;;;;;;;1.15;45.04;100276.66;10411424;28;20233;-41
2024/01/13 18:10:26;;;;;;;25.10;14.80;;;;;;;1.62;45.26;100129.06;10408037;28;20231;-40
2024/01/13 18:15:28;;;;;;;20.67;14.03;;;;;;;0.92;45.19;100309.09;10411547;28;20450;-41
2024/01/13 18:20:30;;;;;;;29.00;15.63;;;;;;;1.19;45.59;100204.28;10406000;28;20784;-41
2024/01/13 18:25:32;;;;;;;33.40;19.13;;;;;;;0.37;45.96;100450.69;10415553;28;20327;-40
2024/01/13 18:30:35;;;;;;;28.17;15.60;;;;;;;1.46;44.71;100207.69;10411023;28;20232;-42
2024/01/13 18:35:37;;;;;;;20.83;11.47;;;;;;;-2.70;51.06;100628.69;10415990;28;20720;-37
2024/01/13 18:40:40;;;;;;;31.23;18.10;;;;;;;0.01;47.55;100257.44;10408578;28;20332;-40
2024/01/13 18:45:44;;;;;;;33.10;17.53;;;;;;;1.46;45.56;100183.94;10408825;28;20294;-40
2024/01/13 18:50:47;;;;;;;32.50;17.20;;;;;;;-0.01;46.78;100425.94;10412554;28;20240;-40
2024/01/13 18:55:49;;;;;;;34.60;19.13;;;;;;;0.86;46.56;100163.66;10405924;28;20598;-39
2024/01/13 19:00:53;;;;;;;32.23;16.10;;;;;;;-1.19;48.46;100510.31;10411244;28;20651;-38
2024/01/13 19:05:55;;;;;;;50.50;22.87;;;;;;;1.37;45.50;100127.44;10413128;28;20659;-40
2024/01/13 19:10:57;;;;;;;50.43;22.00;;;;;;;0.56;48.12;100069.28;10405375;28;20267;-41
2024/01/13 19:15:59;;;;;;;38.53;20.10;;;;;;;0.45;46.93;100278.06;10410144;28;20241;-39
2024/01/13 19:21:00;;;;;;;44.70;21.90;;;;;;;1.21;45.46;100263.03;10403621;28;20290;-41
2024/01/13 19:26:04;;;;;;;37.10;20.33;;;;;;;0.13;47.23;100339.00;10418234;28;20301;-40
2024/01/13 19:31:06;;;;;;;41.20;17.33;;;;;;;0.80;45.48;100339.78;10409235;28;20232;-42
2024/01/13 19:36:08;;;;;;;31.70;18.23;;;;;;;0.19;46.23;100482.56;10416438;28;20235;-43
2024/01/13 19:41:10;;;;;;;20.43;10.93;;;;;;;-0.17;47.39;100256.88;10413145;28;20234;-40
2024/01/13 19:46:15;;;;;;;17.43;11.37;;;;;;;-0.43;47.45;100288.38;10413700;28;20292;-45
2024/01/13 19:51:17;;;;;;;18.40;10.53;;;;;;;-0.35;46.81;100386.03;10411700;28;20637;-37
2024/01/13 19:56:22;;;;;;;16.80;10.37;;;;;;;-1.44;47.86;100563.41;10416286;28;20243;-40
2024/01/13 20:01:23;;;;;;;15.67;10.43;;;;;;;0.12;46.10;100311.03;10409984;28;20696;-42
2024/01/13 20:06:27;;;;;;;15.90;10.57;;;;;;;-0.02;46.08;100287.41;10416903;28;20294;-42
2024/01/13 20:11:29;;;;;;;16.73;10.80;;;;;;;0.90;45.14;100129.16;10414398;28;20243;-40
2024/01/13 20:16:32;;;;;;;15.07;10.20;;;;;;;0.64;45.10;100221.47;10414946;28;20255;-44
2024/01/13 20:21:34;;;;;;;17.13;10.43;;;;;;;0.20;44.95;100368.41;10413045;28;20233;-43
2024/01/13 20:26:38;;;;;;;15.53;9.63;;;;;;;1.25;44.22;100142.34;10417787;28;20239;-38
2024/01/13 20:31:40;;;;;;;17.73;11.57;;;;;;;0.62;44.58;100271.63;10414268;28;20495;-43
2024/01/13 20:36:42;;;;;;;17.63;11.43;;;;;;;-0.31;45.86;100391.94;10413223;28;20716;-43
2024/01/13 20:41:44;;;;;;;17.63;10.40;;;;;;;0.74;44.23;100229.56;10407936;28;20240;-41
2024/01/13 20:46:45;;;;;;;21.83;13.57;;;;;;;0.96;44.67;100150.63;10404261;28;20239;-44
2024/01/13 20:51:47;;;;;;;22.70;11.73;;;;;;;-0.31;45.67;100434.03;10404110;28;20718;-43
2024/01/13 20:56:49;;;;;;;20.27;13.13;;;;;;;0.50;44.45;100362.84;10414906;28;20757;-44
2024/01/13 21:01:51;;;;;;;17.67;11.97;;;;;;;-0.43;45.46;100486.44;10406942;28;20236;-37
2024/01/13 21:06:52;;;;;;;15.40;10.40;;;;;;;0.18;45.60;100219.44;10410040;28;20248;-37
2024/01/13 21:11:54;;;;;;;16.47;10.10;;;;;;;0.63;44.89;100196.94;10411615;28;20516;-36
2024/01/13 21:16:56;;;;;;;16.60;10.27;;;;;;;0.18;45.37;100309.75;10414377;28;20501;-39
2024/01/13 21:21:58;;;;;;;17.33;10.30;;;;;;;0.29;45.28;100280.06;10407538;28;20314;-41
2024/01/13 21:27:00;;;;;;;14.93;10.40;;;;;;;0.31;45.24;100246.59;10405880;28;20334;-38
2024/01/13 21:32:01;;;;;;;15.63;9.17;;;;;;;0.16;44.78;100352.91;10401173;28;20771;-43
2024/01/13 21:37:03;;;;;;;14.07;9.23;;;;;;;1.03;44.51;100106.22;10424053;28;20322;-42
2024/01/13 21:42:05;;;;;;;15.93;10.57;;;;;;;-0.11;45.62;100291.50;10414283;28;20234;-43
2024/01/13 21:47:08;;;;;;;19.37;10.43;;;;;;;1.49;44.14;100018.38;10415525;28;20234;-43
2024/01/13 21:52:09;;;;;;;18.87;12.40;;;;;;;0.38;44.65;100253.13;10422776;28;20230;-43
2024/01/13 21:57:11;;;;;;;22.20;12.80;;;;;;;0.09;45.88;100221.75;10410536;28;20710;-38
2024/01/13 22:02:14;;;;;;;22.37;12.80;;;;;;;0.66;44.62;100209.88;10416162;28;20650;-42
2024/01/13 22:07:17;;;;;;;18.10;13.10;;;;;;;0.05;45.44;100283.41;10415902;28;20346;-38
2024/01/13 22:12:22;;;;;;;22.37;12.27;;;;;;;0.04;45.88;100229.13;10427003;28;20657;-42
2024/01/13 22:17:24;;;;;;;23.50;13.87;;;;;;;0.83;44.64;100121.72;10418400;28;20270;-43
2024/01/13 22:22:28;;;;;;;20.60;11.60;;;;;;;0.55;44.63;100201.06;10385572;28;20232;-43
2024/01/13 22:27:30;;;;;;;20.53;12.63;;;;;;;0.15;45.27;100188.91;10420842;28;20274;-40
2024/01/13 22:32:32;;;;;;;23.10;13.60;;;;;;;1.25;44.24;99989.44;10409690;22;20739;-74
2024/01/13 22:37:35;;;;;;;18.90;12.13;;;;;;;-0.12;45.69;100218.78;10401438;28;20608;-72
2024/01/13 22:42:38;;;;;;;22.20;12.87;;;;;;;0.90;44.36;100076.44;10395186;28;20606;-74
2024/01/13 22:47:41;;;;;;;21.17;13.03;;;;;;;1.21;43.41;100082.91;10388086;28;20418;-75
2024/01/13 22:52:43;;;;;;;22.40;12.17;;;;;;;0.86;44.00;100099.56;10386514;28;20688;-72
2024/01/13 22:57:44;;;;;;;20.27;11.73;;;;;;;0.84;44.58;100046.97;10391885;28;20958;-73